createdAt,value
2022-12-17T00:03:02.573Z,100102.44
2022-12-17T00:06:11.566Z,100096.47
2022-12-17T00:09:17.776Z,100064.56
2022-12-17T00:12:23.895Z,100027.66
2022-12-17T00:15:29.896Z,100101.03
2022-12-17T00:18:36.078Z,100111.47
2022-12-17T00:21:42.215Z,100137.00
2022-12-17T00:24:48.770Z,100130.00
2022-12-17T00:27:54.981Z,100111.03
2022-12-17T00:31:01.242Z,100110.34
2022-12-17T00:34:10.201Z,100069.03
2022-12-17T00:37:18.937Z,100103.06
2022-12-17T00:40:26.111Z,100071.22
2022-12-17T00:43:32.771Z,100062.56
2022-12-17T00:46:39.875Z,100090.22
2022-12-17T00:49:46.186Z,100068.00
2022-12-17T00:52:52.220Z,100085.75
2022-12-17T00:55:59.092Z,100048.03
2022-12-17T00:59:05.474Z,100059.63
2022-12-17T01:02:30.332Z,100072.53
2022-12-17T01:05:38.075Z,100051.97
2022-12-17T01:08:44.089Z,100052.69
2022-12-17T01:11:50.487Z,100051.56
2022-12-17T01:14:56.674Z,100062.28
2022-12-17T01:18:04.949Z,100024.44
2022-12-17T01:21:16.801Z,100022.91
2022-12-17T01:24:23.371Z,100025.41
2022-12-17T01:27:29.918Z,100025.50
2022-12-17T01:30:36.373Z,100012.09
2022-12-17T01:33:42.370Z,99977.78
2022-12-17T01:36:48.598Z,99998.81
2022-12-17T01:39:54.939Z,99985.63
2022-12-17T01:43:03.938Z,99997.22
2022-12-17T01:46:10.071Z,100004.47
2022-12-17T01:49:16.448Z,100020.63
2022-12-17T01:52:22.885Z,100007.84
2022-12-17T01:55:29.262Z,100018.75
2022-12-17T01:58:35.681Z,100011.28
2022-12-17T02:01:42.017Z,100015.94
2022-12-17T02:04:48.948Z,100036.41
2022-12-17T02:08:00.983Z,99980.03
2022-12-17T02:11:09.665Z,100016.81
2022-12-17T02:14:37.828Z,99996.28
2022-12-17T02:17:50.908Z,99996.53
2022-12-17T02:21:07.750Z,100001.13
2022-12-17T02:24:15.123Z,100008.41
2022-12-17T02:27:26.646Z,100002.13
2022-12-17T02:30:33.315Z,100031.63
2022-12-17T02:33:41.297Z,100011.63
2022-12-17T02:36:47.716Z,99994.38
2022-12-17T02:40:13.876Z,99996.69
2022-12-17T02:43:21.014Z,100010.31
2022-12-17T02:46:28.959Z,99970.75
2022-12-17T02:49:35.506Z,100010.75
2022-12-17T02:52:43.667Z,100015.00
2022-12-17T02:55:49.615Z,100040.03
2022-12-17T02:58:56.039Z,100046.28
2022-12-17T03:02:19.133Z,100057.41
2022-12-17T03:05:44.506Z,100042.16
2022-12-17T03:08:51.627Z,100063.34
2022-12-17T03:11:58.055Z,100089.34
2022-12-17T03:15:04.621Z,100090.94
2022-12-17T03:18:30.544Z,100059.47
2022-12-17T03:21:39.345Z,100105.88
2022-12-17T03:24:46.511Z,100097.94
2022-12-17T03:27:52.455Z,100099.44
2022-12-17T03:30:58.861Z,100106.81
2022-12-17T03:34:05.395Z,100097.63
2022-12-17T03:37:11.378Z,100080.97
2022-12-17T03:40:17.503Z,100092.28
2022-12-17T03:43:27.871Z,100071.28
2022-12-17T03:46:34.029Z,100100.06
2022-12-17T03:49:40.390Z,100085.13
2022-12-17T03:52:46.554Z,100059.38
2022-12-17T03:55:52.902Z,100039.97
2022-12-17T03:58:59.042Z,100038.47
2022-12-17T04:02:05.850Z,100091.75
2022-12-17T04:05:18.197Z,100094.78
2022-12-17T04:08:26.200Z,100100.63
2022-12-17T04:11:32.731Z,100084.91
2022-12-17T04:14:38.795Z,100060.47
2022-12-17T04:17:45.130Z,100057.81
2022-12-17T04:20:51.449Z,100070.47
2022-12-17T04:23:57.513Z,100055.31
2022-12-17T04:27:03.501Z,100020.63
2022-12-17T04:30:09.325Z,100005.03
2022-12-17T04:33:15.310Z,100012.50
2022-12-17T04:36:21.347Z,100024.59
2022-12-17T04:39:27.300Z,100002.59
2022-12-17T04:42:33.180Z,99981.22
2022-12-17T04:45:39.408Z,99962.88
2022-12-17T04:48:45.432Z,99976.97
2022-12-17T04:51:51.441Z,99976.97
2022-12-17T04:54:57.609Z,99979.69
2022-12-17T04:58:03.824Z,99977.38
2022-12-17T05:01:11.541Z,99998.38
2022-12-17T05:04:17.835Z,99984.84
2022-12-17T05:07:23.945Z,99998.88
2022-12-17T05:10:30.228Z,99968.94
2022-12-17T05:13:43.850Z,99976.59
2022-12-17T05:16:50.018Z,99928.56
2022-12-17T05:19:58.630Z,99969.53
2022-12-17T05:23:04.878Z,99977.22
2022-12-17T05:26:24.568Z,99997.50
2022-12-17T05:29:31.003Z,99974.97
2022-12-17T05:32:36.994Z,99951.69
2022-12-17T05:35:43.049Z,99953.63
2022-12-17T05:38:49.124Z,99934.06
2022-12-17T05:41:55.794Z,99929.09
2022-12-17T05:45:04.614Z,99957.25
2022-12-17T05:48:16.005Z,99961.47
2022-12-17T05:51:22.590Z,99955.72
2022-12-17T05:54:29.169Z,99949.84
2022-12-17T05:57:35.436Z,99983.72
2022-12-17T06:00:41.950Z,99945.13
2022-12-17T06:03:48.513Z,99952.78
2022-12-17T06:06:54.809Z,99950.13
2022-12-17T06:10:01.301Z,99951.16
2022-12-17T06:13:16.702Z,100019.81
2022-12-17T06:16:22.949Z,100072.19
2022-12-17T06:19:28.848Z,100033.50
2022-12-17T06:22:34.991Z,100130.44
2022-12-17T06:25:41.047Z,100121.16
2022-12-17T06:28:47.403Z,100198.09
2022-12-17T06:31:53.463Z,100175.06
2022-12-17T06:34:59.894Z,100195.47
2022-12-17T06:38:06.227Z,100193.75
2022-12-17T06:41:12.733Z,100197.16
2022-12-17T06:44:19.027Z,100188.59
2022-12-17T06:47:25.124Z,100247.16
2022-12-17T06:50:31.352Z,100248.50
2022-12-17T06:53:37.963Z,100236.13
2022-12-17T06:56:44.843Z,100257.78
2022-12-17T06:59:51.177Z,100282.75
2022-12-17T07:02:57.784Z,100289.13
2022-12-17T07:06:04.286Z,100298.53
2022-12-17T07:09:10.516Z,100303.19
2022-12-17T07:12:33.369Z,100319.56
2022-12-17T07:15:39.824Z,100288.84
2022-12-17T07:18:45.919Z,100255.28
2022-12-17T07:21:52.188Z,100342.41
2022-12-17T07:24:58.709Z,100431.69
2022-12-17T07:28:12.770Z,100428.16
2022-12-17T07:31:22.090Z,100438.47
2022-12-17T07:34:28.335Z,100329.97
2022-12-17T07:37:34.438Z,100356.16
2022-12-17T07:40:40.358Z,100337.06
2022-12-17T07:43:52.934Z,100362.22
2022-12-17T07:46:59.566Z,100356.94
2022-12-17T07:50:05.752Z,100374.34
2022-12-17T07:53:19.849Z,100365.13
2022-12-17T07:56:26.149Z,100333.13
2022-12-17T07:59:39.878Z,100351.97
2022-12-17T08:02:46.587Z,100333.69
2022-12-17T08:05:52.514Z,100355.44
2022-12-17T08:09:01.601Z,100357.13
2022-12-17T08:12:07.666Z,100327.50
2022-12-17T08:15:13.935Z,100294.94
2022-12-17T08:18:26.644Z,100312.78
2022-12-17T08:21:36.761Z,100312.72
2022-12-17T08:24:45.647Z,100322.41
2022-12-17T08:27:51.803Z,100325.41
2022-12-17T08:30:57.780Z,100344.47
2022-12-17T08:34:07.895Z,100324.44
2022-12-17T08:37:17.387Z,100317.63
2022-12-17T08:40:24.274Z,100337.63
2022-12-17T08:43:30.662Z,100336.25
2022-12-17T08:46:37.210Z,100353.72
2022-12-17T08:49:44.052Z,100377.09
2022-12-17T08:52:51.955Z,100354.34
2022-12-17T08:55:59.983Z,100348.22
2022-12-17T08:59:08.489Z,100411.69
2022-12-17T09:02:25.500Z,100396.25
2022-12-17T09:05:31.857Z,100450.59
2022-12-17T09:08:38.132Z,100423.75
2022-12-17T09:11:44.344Z,100373.06
2022-12-17T09:14:50.327Z,100325.81
2022-12-17T09:17:56.495Z,100271.91
2022-12-17T09:21:11.488Z,100226.91
2022-12-17T09:24:17.509Z,100156.09
2022-12-17T09:27:25.883Z,100183.75
2022-12-17T09:30:35.132Z,100173.66
2022-12-17T09:33:41.483Z,100121.78
2022-12-17T09:36:51.179Z,100159.53
2022-12-17T09:39:57.795Z,100121.81
2022-12-17T09:43:15.392Z,100056.34
2022-12-17T09:46:42.819Z,100064.59
2022-12-17T09:49:48.889Z,100052.78
2022-12-17T09:53:00.856Z,100037.16
2022-12-17T09:56:10.040Z,100018.63
2022-12-17T09:59:16.929Z,100014.34
2022-12-17T10:02:46.082Z,100012.16
2022-12-17T10:05:53.602Z,99991.88
2022-12-17T10:09:03.928Z,100000.28
2022-12-17T10:12:12.473Z,100118.50
2022-12-17T10:15:19.070Z,100139.78
2022-12-17T10:18:30.341Z,100139.31
2022-12-17T10:21:38.295Z,100136.25
2022-12-17T10:24:47.296Z,100122.84
2022-12-17T10:28:15.865Z,100106.84
2022-12-17T10:31:34.626Z,100074.81
2022-12-17T10:34:40.794Z,100092.03
2022-12-17T10:37:47.583Z,100094.53
2022-12-17T10:40:53.801Z,100110.16
2022-12-17T10:44:01.128Z,100108.88
2022-12-17T10:47:15.477Z,100064.88
2022-12-17T10:50:31.950Z,100063.81
2022-12-17T10:53:41.421Z,100011.53
2022-12-17T10:56:47.988Z,100051.41
2022-12-17T10:59:58.033Z,100064.88
2022-12-17T11:03:07.875Z,100056.59
2022-12-17T11:06:14.168Z,100048.91
2022-12-17T11:09:21.407Z,100071.16
2022-12-17T11:12:31.321Z,100086.88
2022-12-17T11:15:39.305Z,100091.91
2022-12-17T11:18:54.783Z,100081.03
2022-12-17T11:22:10.186Z,100098.09
2022-12-17T11:25:36.528Z,100126.59
2022-12-17T11:28:47.784Z,100146.53
2022-12-17T11:32:15.512Z,100155.72
2022-12-17T11:35:42.458Z,100167.00
2022-12-17T11:39:02.107Z,100173.00
2022-12-17T11:42:36.724Z,100194.91
2022-12-17T11:45:58.429Z,100173.13
2022-12-17T11:49:10.498Z,100181.44
2022-12-17T11:52:36.649Z,100191.94
2022-12-17T11:56:13.319Z,100200.56
2022-12-17T11:59:34.866Z,100219.84
2022-12-17T12:02:50.250Z,100240.66
2022-12-17T12:06:12.794Z,100259.81
2022-12-17T12:09:53.683Z,100238.00
2022-12-17T12:13:20.842Z,100231.00
2022-12-17T12:16:54.461Z,100186.13
2022-12-17T12:20:12.412Z,100248.25
2022-12-17T12:23:34.393Z,100245.38
2022-12-17T12:26:46.271Z,100272.78
2022-12-17T12:30:10.808Z,100291.50
2022-12-17T12:33:23.034Z,100297.28
2022-12-17T12:36:31.307Z,100307.25
2022-12-17T12:39:50.227Z,100300.94
2022-12-17T12:43:22.369Z,100303.47
2022-12-17T12:46:47.210Z,100317.13
2022-12-17T12:49:53.366Z,100326.75
2022-12-17T12:52:59.508Z,100317.47
2022-12-17T12:56:05.516Z,100317.59
2022-12-17T12:59:11.881Z,100355.03
2022-12-17T13:02:18.390Z,100356.56
2022-12-17T13:05:34.715Z,100369.16
2022-12-17T13:08:25.977Z,100375.78
2022-12-17T13:11:37.980Z,100399.56
2022-12-17T13:14:50.907Z,100403.28
2022-12-17T13:17:44.531Z,100402.00
2022-12-17T13:20:34.574Z,100373.97
2022-12-17T13:23:32.275Z,100402.66
2022-12-17T13:26:42.757Z,100420.59
2022-12-17T13:29:37.384Z,100428.13
2022-12-17T13:32:49.628Z,100438.03
2022-12-17T13:35:57.647Z,100437.03
2022-12-17T13:38:58.261Z,100438.03
2022-12-17T13:41:45.955Z,100449.78
2022-12-17T13:44:44.984Z,100456.75
2022-12-17T13:47:35.485Z,100457.44
2022-12-17T13:50:34.242Z,100445.28
2022-12-17T13:53:22.913Z,100476.63
2022-12-17T13:56:11.394Z,100460.56
2022-12-17T13:59:08.170Z,100455.34
2022-12-17T14:01:57.002Z,100474.56
2022-12-17T14:04:54.219Z,100458.75
2022-12-17T14:07:46.578Z,100470.66
2022-12-17T14:10:34.765Z,100488.66
2022-12-17T14:13:22.577Z,100487.03
2022-12-17T14:16:10.242Z,100489.69
2022-12-17T14:18:59.866Z,100480.34
2022-12-17T14:21:48.170Z,100492.97
2022-12-17T14:24:38.887Z,100499.94
2022-12-17T14:28:00.793Z,100511.94
2022-12-17T14:31:25.688Z,100485.50
2022-12-17T14:34:08.601Z,100465.81
2022-12-17T14:36:59.409Z,100500.22
2022-12-17T14:39:48.940Z,100521.53
2022-12-17T14:42:38.140Z,100514.75
2022-12-17T14:45:56.411Z,100509.06
2022-12-17T14:49:02.622Z,100502.13
2022-12-17T14:51:50.841Z,100535.75
2022-12-17T14:54:46.107Z,100546.75
2022-12-17T14:57:33.784Z,100544.81
2022-12-17T15:00:24.742Z,100527.41
2022-12-17T15:03:22.539Z,100565.38
2022-12-17T15:06:13.309Z,100560.50
2022-12-17T15:09:02.651Z,100566.34
2022-12-17T15:11:50.733Z,100578.44
2022-12-17T15:14:41.943Z,100590.22
2022-12-17T15:17:31.765Z,100606.41
2022-12-17T15:20:21.601Z,100609.63
2022-12-17T15:23:23.879Z,100606.56
2022-12-17T15:26:12.775Z,100612.88
2022-12-17T15:29:00.668Z,100623.88
2022-12-17T15:31:48.411Z,100617.41
2022-12-17T15:34:36.174Z,100616.94
2022-12-17T15:37:27.154Z,100613.50
2022-12-17T15:40:14.891Z,100626.75
2022-12-17T15:43:11.470Z,100620.28
2022-12-17T15:46:00.973Z,100626.56
2022-12-17T15:48:50.772Z,100617.84
2022-12-17T15:51:41.528Z,100623.00
2022-12-17T15:54:29.224Z,100642.03
2022-12-17T15:57:18.668Z,100650.91
2022-12-17T16:00:07.554Z,100646.72
2022-12-17T16:02:59.202Z,100609.69
2022-12-17T16:05:47.022Z,100650.44
2022-12-17T16:08:39.183Z,100656.19
2022-12-17T16:11:28.575Z,100663.44
2022-12-17T16:14:19.205Z,100659.28
2022-12-17T16:17:06.837Z,100640.38
2022-12-17T16:19:54.678Z,100643.59
2022-12-17T16:22:45.524Z,100668.00
2022-12-17T16:25:35.760Z,100662.50
2022-12-17T16:28:29.784Z,100655.88
2022-12-17T16:31:20.626Z,100676.53
2022-12-17T16:34:10.219Z,100672.69
2022-12-17T16:36:58.193Z,100664.28
2022-12-17T16:39:45.725Z,100658.81
2022-12-17T16:42:33.575Z,100668.84
2022-12-17T16:45:21.112Z,100673.91
2022-12-17T16:48:08.822Z,100677.00
2022-12-17T16:50:57.297Z,100669.91
2022-12-17T16:53:45.299Z,100689.44
2022-12-17T16:56:39.444Z,100690.75
2022-12-17T16:59:31.107Z,100694.94
2022-12-17T17:02:18.860Z,100693.97
2022-12-17T17:05:06.732Z,100695.13
2022-12-17T17:07:54.523Z,100693.19
2022-12-17T17:10:42.289Z,100673.81
2022-12-17T17:13:33.420Z,100697.09
2022-12-17T17:16:24.595Z,100702.13
2022-12-17T17:19:15.363Z,100712.16
2022-12-17T17:22:03.245Z,100700.66
2022-12-17T17:24:50.954Z,100719.44
2022-12-17T17:27:40.860Z,100683.84
2022-12-17T17:30:28.642Z,100747.41
2022-12-17T17:33:16.456Z,100737.19
2022-12-17T17:36:05.894Z,100764.38
2022-12-17T17:38:59.612Z,100736.34
2022-12-17T17:41:48.201Z,100755.81
2022-12-17T17:44:36.403Z,100763.56
2022-12-17T17:47:24.644Z,100770.50
2022-12-17T17:50:13.747Z,100765.00
2022-12-17T17:53:06.927Z,100750.91
2022-12-17T17:55:55.725Z,100759.00
2022-12-17T17:58:49.489Z,100770.47
2022-12-17T18:01:40.617Z,100764.94
2022-12-17T18:04:36.425Z,100788.06
2022-12-17T18:07:28.949Z,100785.47
2022-12-17T18:10:16.858Z,100772.63
2022-12-17T18:13:27.487Z,100787.69
2022-12-17T18:16:18.394Z,100799.94
2022-12-17T18:19:26.367Z,100799.09
2022-12-17T18:22:16.938Z,100807.44
2022-12-17T18:25:05.547Z,100808.25
2022-12-17T18:27:55.454Z,100808.47
2022-12-17T18:30:45.412Z,100806.97
2022-12-17T18:33:34.896Z,100819.84
2022-12-17T18:36:28.321Z,100827.25
2022-12-17T18:39:27.164Z,100838.94
2022-12-17T18:42:38.826Z,100841.56
2022-12-17T18:45:29.474Z,100850.56
2022-12-17T18:48:23.805Z,100862.03
2022-12-17T18:51:11.469Z,100851.78
2022-12-17T18:54:12.657Z,100860.72
2022-12-17T18:57:04.659Z,100865.34
2022-12-17T18:59:54.285Z,100873.47
2022-12-17T19:02:42.348Z,100886.53
2022-12-17T19:05:33.502Z,100892.47
2022-12-17T19:08:21.107Z,100894.47
2022-12-17T19:11:10.613Z,100905.31
2022-12-17T19:14:00.316Z,100894.56
2022-12-17T19:16:48.451Z,100910.94
2022-12-17T19:19:36.251Z,100910.53
2022-12-17T19:22:24.073Z,100918.47
2022-12-17T19:25:11.779Z,100927.63
2022-12-17T19:27:59.408Z,100910.69
2022-12-17T19:30:47.136Z,100927.25
2022-12-17T19:33:37.939Z,100934.03
2022-12-17T19:36:30.351Z,100951.63
2022-12-17T19:39:20.244Z,100949.00
2022-12-17T19:42:24.941Z,100947.59
2022-12-17T19:45:12.927Z,100962.00
2022-12-17T19:48:00.420Z,100948.69
2022-12-17T19:50:57.060Z,100976.03
2022-12-17T19:53:48.364Z,100978.47
2022-12-17T19:56:36.063Z,100984.06
2022-12-17T19:59:25.166Z,100986.28
2022-12-17T20:02:12.974Z,100998.91
2022-12-17T20:05:00.939Z,100978.78
2022-12-17T20:07:52.330Z,101008.03
2022-12-17T20:10:40.589Z,101007.63
2022-12-17T20:13:28.720Z,101016.06
2022-12-17T20:16:16.463Z,101020.94
2022-12-17T20:19:07.143Z,101022.34
2022-12-17T20:21:55.214Z,101035.97
2022-12-17T20:24:42.903Z,101028.97
2022-12-17T20:27:30.794Z,101030.47
2022-12-17T20:30:18.561Z,101022.56
2022-12-17T20:33:06.218Z,101011.69
2022-12-17T20:35:54.187Z,101032.09
2022-12-17T20:38:43.365Z,101034.34
2022-12-17T20:41:32.226Z,101021.13
2022-12-17T20:44:19.942Z,101036.00
2022-12-17T20:47:07.551Z,101034.56
2022-12-17T20:49:57.177Z,101030.69
2022-12-17T20:52:44.857Z,101040.53
2022-12-17T20:55:32.513Z,101031.09
2022-12-17T20:58:23.160Z,101058.75
2022-12-17T21:01:15.891Z,101059.66
2022-12-17T21:04:07.746Z,101053.22
2022-12-17T21:06:57.653Z,101071.84
2022-12-17T21:09:45.376Z,101063.59
2022-12-17T21:12:52.959Z,101059.31
2022-12-17T21:15:40.652Z,101067.47
2022-12-17T21:18:29.978Z,101085.63
2022-12-17T21:21:21.114Z,101076.78
2022-12-17T21:24:18.409Z,101080.06
2022-12-17T21:27:12.751Z,101068.56
2022-12-17T21:30:02.844Z,101090.06
2022-12-17T21:32:55.634Z,101058.31
2022-12-17T21:35:43.429Z,101100.78
2022-12-17T21:38:31.685Z,101102.69
2022-12-17T21:41:25.051Z,101091.53
2022-12-17T21:44:15.531Z,101079.31
2022-12-17T21:47:03.709Z,101087.72
2022-12-17T21:49:51.471Z,101099.44
2022-12-17T21:52:39.051Z,101096.31
2022-12-17T21:55:27.747Z,101103.09
2022-12-17T21:58:15.720Z,101102.97
2022-12-17T22:01:19.685Z,101106.25
2022-12-17T22:04:07.611Z,101098.50
2022-12-17T22:06:56.918Z,101108.47
2022-12-17T22:10:01.147Z,101109.84
2022-12-17T22:13:15.292Z,101133.13
2022-12-17T22:16:07.344Z,101137.41
2022-12-17T22:19:20.305Z,101136.38
2022-12-17T22:22:33.675Z,101146.09
2022-12-17T22:25:21.945Z,101137.06
2022-12-17T22:28:10.906Z,101149.47
2022-12-17T22:31:23.516Z,101151.09
2022-12-17T22:35:42.025Z,101145.94
2022-12-17T22:39:07.769Z,101151.78
2022-12-17T22:44:33.645Z,101113.47
2022-12-17T22:44:45.731Z,101137.75
2022-12-17T22:46:44.643Z,101145.09
2022-12-17T22:49:32.268Z,101137.69
2022-12-17T22:52:23.384Z,101159.06
2022-12-17T22:55:50.637Z,101150.13
2022-12-17T22:58:46.884Z,101106.63
2022-12-17T23:01:35.216Z,101153.25
2022-12-17T23:04:23.036Z,101158.88
2022-12-17T23:07:10.733Z,101154.81
2022-12-17T23:09:59.132Z,101156.59
2022-12-17T23:12:52.792Z,101161.84
2022-12-17T23:15:40.506Z,101170.59
2022-12-17T23:18:28.335Z,101169.91
2022-12-17T23:21:24.857Z,101169.09
2022-12-17T23:24:12.725Z,101174.63
2022-12-17T23:27:00.401Z,101170.00
2022-12-17T23:29:48.147Z,101180.34
2022-12-17T23:32:35.903Z,101184.22
2022-12-17T23:35:23.976Z,101193.34
2022-12-17T23:38:11.576Z,101195.63
2022-12-17T23:41:11.531Z,101193.03
2022-12-17T23:44:00.258Z,101178.06
2022-12-17T23:46:48.101Z,101196.91
2022-12-17T23:49:35.774Z,101196.50
2022-12-17T23:52:23.574Z,101191.19
2022-12-17T23:55:13.372Z,101213.25
2022-12-17T23:58:01.090Z,101204.16
